Terminal Aerodrome Forecast
Issued by NWS

Home | Current Version | Previous Version | Text Only | Print | Product List | Glossary On
Versions: 1 2 3 4 5 6 7 8 9 10 11 12 13 14 15 16 17 18 19 20 21 22
939
FTUS41 KILN 260520
TAFLCK
TAF
KLCK 260520Z 2606/2706 02004KT P6SM BKN250
      TEMPO 2609/2613 4SM BR
     FM261400 09003KT P6SM SCT040 BKN200
     FM270200 03003KT P6SM SCT040 BKN080=

USA.gov is the U.S. government's official web portal to all federal, state and local government web resources and services.